createdAt,value
2022-12-31T00:01:58.579Z,3.78
2022-12-31T00:04:25.311Z,3.57
2022-12-31T00:06:51.917Z,3.57
2022-12-31T00:09:18.519Z,3.80
2022-12-31T00:11:45.135Z,3.76
2022-12-31T00:14:11.783Z,3.63
2022-12-31T00:16:41.324Z,3.51
2022-12-31T00:19:10.728Z,3.67
2022-12-31T00:21:38.487Z,3.87
2022-12-31T00:24:06.135Z,3.78
2022-12-31T00:26:34.583Z,3.80
2022-12-31T00:29:03.371Z,3.58
2022-12-31T00:31:35.681Z,3.33
2022-12-31T00:34:02.694Z,3.75
2022-12-31T00:36:32.221Z,3.87
2022-12-31T00:39:00.177Z,3.69
2022-12-31T00:41:27.805Z,3.73
2022-12-31T00:43:55.249Z,3.23
2022-12-31T00:46:22.111Z,3.37
2022-12-31T00:48:48.767Z,3.57
2022-12-31T00:51:18.278Z,3.73
2022-12-31T00:53:45.436Z,3.43
2022-12-31T00:56:14.906Z,3.75
2022-12-31T00:58:42.187Z,3.82
2022-12-31T01:01:13.483Z,3.42
2022-12-31T01:03:43.589Z,3.74
2022-12-31T01:06:10.449Z,3.69
2022-12-31T01:08:37.115Z,3.70
2022-12-31T01:11:04.586Z,3.38
2022-12-31T01:13:31.196Z,3.67
2022-12-31T01:15:57.876Z,3.78
2022-12-31T01:18:24.604Z,3.95
2022-12-31T01:20:51.208Z,3.80
2022-12-31T01:23:17.799Z,3.85
2022-12-31T01:25:44.588Z,3.61
2022-12-31T01:28:11.220Z,3.40
2022-12-31T01:30:39.268Z,3.87
2022-12-31T01:33:06.031Z,4.00
2022-12-31T01:35:34.984Z,3.79
2022-12-31T01:38:01.885Z,3.75
2022-12-31T01:40:28.509Z,3.97
2022-12-31T01:42:56.827Z,3.86
2022-12-31T01:45:23.549Z,3.64
2022-12-31T01:47:54.755Z,3.77
2022-12-31T01:50:27.820Z,3.82
2022-12-31T01:53:00.937Z,3.95
2022-12-31T01:55:32.945Z,3.84
2022-12-31T01:58:06.842Z,3.52
2022-12-31T02:00:33.840Z,3.47
2022-12-31T02:03:01.204Z,3.27
2022-12-31T02:05:50.924Z,3.56
2022-12-31T02:08:18.189Z,3.98
2022-12-31T02:10:44.783Z,3.91
2022-12-31T02:13:11.644Z,3.92
2022-12-31T02:15:59.461Z,3.96
2022-12-31T02:19:03.723Z,3.98
2022-12-31T02:22:02.831Z,3.69
2022-12-31T02:25:10.359Z,3.76
2022-12-31T02:27:36.891Z,3.44
2022-12-31T02:30:10.921Z,2.84
2022-12-31T02:32:52.521Z,2.93
2022-12-31T02:35:29.987Z,3.00
2022-12-31T02:38:16.880Z,3.23
2022-12-31T02:40:44.733Z,3.77
2022-12-31T02:43:11.317Z,3.53
2022-12-31T02:45:41.973Z,3.70
2022-12-31T02:48:19.036Z,3.38
2022-12-31T02:51:00.771Z,3.27
2022-12-31T02:53:47.431Z,3.25
2022-12-31T02:56:27.117Z,3.21
2022-12-31T02:59:23.547Z,3.50
2022-12-31T03:02:07.153Z,3.40
2022-12-31T03:04:34.631Z,3.20
2022-12-31T03:07:14.472Z,3.62
2022-12-31T03:09:41.085Z,3.47
2022-12-31T03:12:11.193Z,3.42
2022-12-31T03:14:37.807Z,3.82
2022-12-31T03:17:04.728Z,3.83
2022-12-31T03:19:31.327Z,3.80
2022-12-31T03:21:57.922Z,4.07
2022-12-31T03:24:24.525Z,4.09
2022-12-31T03:26:51.134Z,3.89
2022-12-31T03:29:17.741Z,3.72
2022-12-31T03:31:44.467Z,3.62
2022-12-31T03:34:11.223Z,3.89
2022-12-31T03:36:37.794Z,3.52
2022-12-31T03:39:04.429Z,3.44
2022-12-31T03:41:31.056Z,3.23
2022-12-31T03:43:57.641Z,3.69
2022-12-31T03:46:24.245Z,3.57
2022-12-31T03:48:50.838Z,3.62
2022-12-31T03:51:17.440Z,3.43
2022-12-31T03:53:44.068Z,3.54
2022-12-31T03:56:10.668Z,3.54
2022-12-31T03:58:37.276Z,3.39
2022-12-31T04:01:04.013Z,3.83
2022-12-31T04:03:30.698Z,3.90
2022-12-31T04:05:57.304Z,4.07
2022-12-31T04:08:24.281Z,4.15
2022-12-31T04:10:50.883Z,4.01
2022-12-31T04:13:17.465Z,3.74
2022-12-31T04:15:44.081Z,3.70
2022-12-31T04:18:10.656Z,4.16
2022-12-31T04:20:37.261Z,4.01
2022-12-31T04:23:04.016Z,4.07
2022-12-31T04:25:30.625Z,4.01
2022-12-31T04:27:57.218Z,4.32
2022-12-31T04:30:23.820Z,3.79
2022-12-31T04:32:50.411Z,3.81
2022-12-31T04:35:17.010Z,3.98
2022-12-31T04:37:43.678Z,3.98
2022-12-31T04:40:10.700Z,3.80
2022-12-31T04:42:37.855Z,3.49
2022-12-31T04:45:05.233Z,3.32
2022-12-31T04:47:31.816Z,3.32
2022-12-31T04:49:58.424Z,3.26
2022-12-31T04:52:25.133Z,3.22
2022-12-31T04:54:51.722Z,3.18
2022-12-31T04:57:18.366Z,3.35
2022-12-31T04:59:45.016Z,3.56
2022-12-31T05:02:11.824Z,3.41
2022-12-31T05:04:38.558Z,3.03
2022-12-31T05:07:05.226Z,3.24
2022-12-31T05:09:31.824Z,3.02
2022-12-31T05:11:58.433Z,2.90
2022-12-31T05:14:25.095Z,2.96
2022-12-31T05:16:51.878Z,3.03
2022-12-31T05:19:18.541Z,3.03
2022-12-31T05:21:45.116Z,2.80
2022-12-31T05:24:11.740Z,2.98
2022-12-31T05:26:38.337Z,2.93
2022-12-31T05:29:04.940Z,2.86
2022-12-31T05:31:31.535Z,2.90
2022-12-31T05:33:58.138Z,3.06
2022-12-31T05:36:24.716Z,3.03
2022-12-31T05:38:51.391Z,2.98
2022-12-31T05:41:17.979Z,3.23
2022-12-31T05:43:44.572Z,3.15
2022-12-31T05:46:11.251Z,2.93
2022-12-31T05:48:37.894Z,3.02
2022-12-31T05:51:04.705Z,3.41
2022-12-31T05:53:31.359Z,3.40
2022-12-31T05:55:57.939Z,3.19
2022-12-31T05:58:24.538Z,2.91
2022-12-31T06:00:52.095Z,2.87
2022-12-31T06:03:18.792Z,3.20
2022-12-31T06:05:45.443Z,3.31
2022-12-31T06:08:12.445Z,3.61
2022-12-31T06:10:39.731Z,3.21
2022-12-31T06:13:07.056Z,3.15
2022-12-31T06:15:37.902Z,3.20
2022-12-31T06:18:04.699Z,3.14
2022-12-31T06:20:31.299Z,3.16
2022-12-31T06:22:57.892Z,3.07
2022-12-31T06:25:24.572Z,2.96
2022-12-31T06:27:51.155Z,2.86
2022-12-31T06:30:17.786Z,2.70
2022-12-31T06:32:44.383Z,2.67
2022-12-31T06:35:10.988Z,2.84
2022-12-31T06:37:37.620Z,2.87
2022-12-31T06:40:04.736Z,2.89
2022-12-31T06:42:31.690Z,2.75
2022-12-31T06:44:59.495Z,3.14
2022-12-31T06:47:26.412Z,3.09
2022-12-31T06:49:53.070Z,3.31
2022-12-31T06:52:19.913Z,2.91
2022-12-31T06:54:47.449Z,2.98
2022-12-31T06:57:14.375Z,3.19
2022-12-31T06:59:41.273Z,3.57
2022-12-31T07:02:16.850Z,3.49
2022-12-31T07:05:05.626Z,3.44
2022-12-31T07:07:44.489Z,3.02
2022-12-31T07:10:29.059Z,3.12
2022-12-31T07:13:23.058Z,3.28
2022-12-31T07:16:08.049Z,3.22
2022-12-31T07:19:05.404Z,3.19
2022-12-31T07:21:36.782Z,3.54
2022-12-31T07:24:06.278Z,3.63
2022-12-31T07:27:07.366Z,3.49
2022-12-31T07:30:02.062Z,3.14
2022-12-31T07:32:34.442Z,2.96
2022-12-31T07:35:17.520Z,3.16
2022-12-31T07:37:44.075Z,3.37
2022-12-31T07:40:19.784Z,3.27
2022-12-31T07:43:40.584Z,3.43
2022-12-31T07:46:14.398Z,3.97
2022-12-31T07:48:41.251Z,3.85
2022-12-31T07:51:10.433Z,3.54
2022-12-31T07:53:37.729Z,3.79
2022-12-31T07:56:06.860Z,3.75
2022-12-31T07:59:07.185Z,3.58
2022-12-31T08:01:54.186Z,4.23
2022-12-31T08:04:27.370Z,3.87
2022-12-31T08:07:05.783Z,3.85
2022-12-31T08:09:55.092Z,4.54
2022-12-31T08:12:23.440Z,4.04
2022-12-31T08:14:50.202Z,4.23
2022-12-31T08:17:18.809Z,3.96
2022-12-31T08:19:46.479Z,4.07
2022-12-31T08:22:34.583Z,3.91
2022-12-31T08:25:08.741Z,4.54
2022-12-31T08:27:41.723Z,4.25
2022-12-31T08:30:13.977Z,4.37
2022-12-31T08:33:18.942Z,4.57
2022-12-31T08:36:23.193Z,3.85
2022-12-31T08:39:12.461Z,3.64
2022-12-31T08:41:43.414Z,3.28
2022-12-31T08:44:28.446Z,3.14
2022-12-31T08:47:10.120Z,3.54
2022-12-31T08:49:37.019Z,3.26
2022-12-31T08:52:04.462Z,3.76
2022-12-31T08:54:31.269Z,3.60
2022-12-31T08:57:26.166Z,3.59
2022-12-31T09:00:08.073Z,3.76
2022-12-31T09:02:46.177Z,3.76
2022-12-31T09:05:22.571Z,3.48
2022-12-31T09:07:54.987Z,3.89
2022-12-31T09:10:32.171Z,3.89
2022-12-31T09:13:08.739Z,3.97
2022-12-31T09:16:00.051Z,4.66
2022-12-31T09:18:32.878Z,4.60
2022-12-31T09:21:00.144Z,3.61
2022-12-31T09:23:27.106Z,3.98
2022-12-31T09:26:05.567Z,4.65
2022-12-31T09:28:56.774Z,4.03
2022-12-31T09:31:45.041Z,4.83
2022-12-31T09:34:14.608Z,4.63
2022-12-31T09:36:46.934Z,4.59
2022-12-31T09:39:42.497Z,4.87
2022-12-31T09:42:33.720Z,4.98
2022-12-31T09:45:23.054Z,5.48
2022-12-31T09:47:55.745Z,5.26
2022-12-31T09:50:43.006Z,5.13
2022-12-31T09:53:35.926Z,5.10
2022-12-31T09:56:44.959Z,5.63
2022-12-31T09:59:24.656Z,5.28
2022-12-31T10:02:02.934Z,5.39
2022-12-31T10:05:12.869Z,4.86
2022-12-31T10:07:53.896Z,4.51
2022-12-31T10:10:26.728Z,5.33
2022-12-31T10:12:59.349Z,5.03
2022-12-31T10:15:52.900Z,4.91
2022-12-31T10:18:47.188Z,5.35
2022-12-31T10:21:19.695Z,5.69
2022-12-31T10:24:30.495Z,5.66
2022-12-31T10:27:28.266Z,5.62
2022-12-31T10:30:15.425Z,5.83
2022-12-31T10:33:13.451Z,5.05
2022-12-31T10:35:43.546Z,5.58
2022-12-31T10:38:22.250Z,5.01
2022-12-31T10:41:06.984Z,5.33
2022-12-31T10:44:12.551Z,5.64
2022-12-31T10:47:03.795Z,5.42
2022-12-31T10:50:02.631Z,5.00
2022-12-31T10:53:16.320Z,5.38
2022-12-31T10:56:08.111Z,5.59
2022-12-31T10:58:54.622Z,5.38
2022-12-31T11:01:24.288Z,5.75
2022-12-31T11:04:18.769Z,5.89
2022-12-31T11:06:51.077Z,5.81
2022-12-31T11:09:34.398Z,5.79
2022-12-31T11:12:19.699Z,6.13
2022-12-31T11:14:46.228Z,5.96
2022-12-31T11:17:34.768Z,5.87
2022-12-31T11:20:25.596Z,5.81
2022-12-31T11:23:03.922Z,6.14
2022-12-31T11:25:38.985Z,6.01
2022-12-31T11:28:05.569Z,5.99
2022-12-31T11:30:44.317Z,5.92
2022-12-31T11:33:37.180Z,5.97
2022-12-31T11:36:32.675Z,5.81
2022-12-31T11:39:31.033Z,5.51
2022-12-31T11:42:03.955Z,5.15
2022-12-31T11:44:45.224Z,5.58
2022-12-31T11:47:23.071Z,5.74
2022-12-31T11:50:01.252Z,5.68
2022-12-31T11:52:51.259Z,5.74
2022-12-31T11:55:41.529Z,5.40
2022-12-31T11:58:18.011Z,5.71
2022-12-31T12:00:54.696Z,6.06
2022-12-31T12:03:21.768Z,5.65
2022-12-31T12:05:49.045Z,5.64
2022-12-31T12:08:16.772Z,5.63
2022-12-31T12:11:04.058Z,5.92
2022-12-31T12:13:30.798Z,6.25
2022-12-31T12:16:00.577Z,5.99
2022-12-31T12:18:35.748Z,6.34
2022-12-31T12:21:22.080Z,6.09
2022-12-31T12:24:04.523Z,5.88
2022-12-31T12:26:42.336Z,5.83
2022-12-31T12:29:31.207Z,6.13
2022-12-31T12:31:59.169Z,6.08
2022-12-31T12:34:29.493Z,6.53
2022-12-31T12:36:56.692Z,6.63
2022-12-31T12:39:34.344Z,6.16
2022-12-31T12:42:19.856Z,5.88
2022-12-31T12:44:46.448Z,5.86
2022-12-31T12:47:18.593Z,5.55
2022-12-31T12:49:48.137Z,5.99
2022-12-31T12:52:36.755Z,6.36
2022-12-31T12:55:12.161Z,6.49
2022-12-31T12:58:03.696Z,5.95
2022-12-31T13:00:54.897Z,6.33
2022-12-31T13:03:36.639Z,5.55
2022-12-31T13:06:12.102Z,5.89
2022-12-31T13:09:03.419Z,6.15
2022-12-31T13:12:07.100Z,6.48
2022-12-31T13:15:00.885Z,6.30
2022-12-31T13:17:53.417Z,6.64
2022-12-31T13:20:24.591Z,6.83
2022-12-31T13:23:10.614Z,7.05
2022-12-31T13:25:43.217Z,7.01
2022-12-31T13:28:15.266Z,7.08
2022-12-31T13:30:46.917Z,6.41
2022-12-31T13:33:25.266Z,6.51
2022-12-31T13:36:02.085Z,6.91
2022-12-31T13:38:40.017Z,6.85
2022-12-31T13:41:11.974Z,6.89
2022-12-31T13:44:24.232Z,6.51
2022-12-31T13:46:59.708Z,6.92
2022-12-31T13:49:35.655Z,6.34
2022-12-31T13:52:38.832Z,5.98
2022-12-31T13:55:26.941Z,5.93
2022-12-31T13:58:10.688Z,5.99
2022-12-31T14:00:45.124Z,6.71
2022-12-31T14:03:36.716Z,6.78
2022-12-31T14:06:38.490Z,6.77
2022-12-31T14:09:05.982Z,7.15
2022-12-31T14:12:10.255Z,6.79
2022-12-31T14:15:04.860Z,7.21
2022-12-31T14:17:43.688Z,7.21
2022-12-31T14:20:31.870Z,6.88
2022-12-31T14:23:18.276Z,6.98
2022-12-31T14:25:49.128Z,7.00
2022-12-31T14:28:21.466Z,6.80
2022-12-31T14:30:54.013Z,7.19
2022-12-31T14:33:50.059Z,6.99
2022-12-31T14:36:41.671Z,6.53
2022-12-31T14:39:17.135Z,6.80
2022-12-31T14:41:52.968Z,7.01
2022-12-31T14:44:43.762Z,6.91
2022-12-31T14:47:41.048Z,6.85
2022-12-31T14:50:26.353Z,6.14
2022-12-31T14:53:02.084Z,7.07
2022-12-31T14:55:34.505Z,6.68
2022-12-31T15:00:53.642Z,6.51
2022-12-31T15:03:31.103Z,6.82
2022-12-31T15:06:22.706Z,6.88
2022-12-31T15:09:07.920Z,6.63
2022-12-31T15:11:38.072Z,6.99
2022-12-31T15:14:13.422Z,6.38
2022-12-31T15:17:11.726Z,6.52
2022-12-31T15:20:17.712Z,6.51
2022-12-31T15:22:52.478Z,6.21
2022-12-31T15:25:41.552Z,6.40
2022-12-31T15:28:30.287Z,6.48
2022-12-31T15:31:06.043Z,6.75
2022-12-31T15:33:52.655Z,6.64
2022-12-31T15:36:25.551Z,6.49
2022-12-31T15:39:09.848Z,5.67
2022-12-31T15:42:18.806Z,5.41
2022-12-31T15:44:57.045Z,5.70
2022-12-31T15:47:41.723Z,6.13
2022-12-31T15:50:17.562Z,6.07
2022-12-31T15:52:57.015Z,6.06
2022-12-31T15:55:38.890Z,6.36
2022-12-31T15:58:30.105Z,5.91
2022-12-31T16:01:04.994Z,5.81
2022-12-31T16:03:31.919Z,5.69
2022-12-31T16:06:04.475Z,5.80
2022-12-31T16:08:34.807Z,5.97
2022-12-31T16:11:04.710Z,5.59
2022-12-31T16:13:36.386Z,6.05
2022-12-31T16:16:15.482Z,5.82
2022-12-31T16:18:43.881Z,6.41
2022-12-31T16:21:24.733Z,6.28
2022-12-31T16:23:54.053Z,6.58
2022-12-31T16:26:24.468Z,6.58
2022-12-31T16:28:51.367Z,6.00
2022-12-31T16:31:19.873Z,6.06
2022-12-31T16:33:47.155Z,6.28
2022-12-31T16:36:22.656Z,6.37
2022-12-31T16:38:49.752Z,6.23
2022-12-31T16:41:20.190Z,5.11
2022-12-31T16:43:50.526Z,5.11
2022-12-31T16:46:29.497Z,5.23
2022-12-31T16:48:59.934Z,5.23
2022-12-31T16:51:31.223Z,5.31
2022-12-31T16:53:58.449Z,5.52
2022-12-31T16:56:45.233Z,5.53
2022-12-31T16:59:35.231Z,5.73
2022-12-31T17:02:07.086Z,5.87
2022-12-31T17:04:34.331Z,5.76
2022-12-31T17:07:40.276Z,5.37
2022-12-31T17:10:06.793Z,5.08
2022-12-31T17:12:53.004Z,4.60
2022-12-31T17:15:42.212Z,5.09
2022-12-31T17:18:18.630Z,4.98
2022-12-31T17:20:45.371Z,5.10
2022-12-31T17:23:22.540Z,5.10
2022-12-31T17:25:49.348Z,5.26
2022-12-31T17:28:24.245Z,5.02
2022-12-31T17:30:51.097Z,5.01
2022-12-31T17:33:20.305Z,5.04
2022-12-31T17:35:47.937Z,5.04
2022-12-31T17:38:23.339Z,5.17
2022-12-31T17:40:52.397Z,5.33
2022-12-31T17:43:21.718Z,5.64
2022-12-31T17:45:51.663Z,5.80
2022-12-31T17:48:20.022Z,5.64
2022-12-31T17:50:53.970Z,5.25
2022-12-31T17:53:21.244Z,5.06
2022-12-31T17:55:51.314Z,5.06
2022-12-31T17:58:29.901Z,5.00
2022-12-31T18:00:56.825Z,5.22
2022-12-31T18:03:23.676Z,5.22
2022-12-31T18:05:50.319Z,5.26
2022-12-31T18:08:16.941Z,5.65
2022-12-31T18:10:44.981Z,5.33
2022-12-31T18:13:24.044Z,5.22
2022-12-31T18:15:51.700Z,5.12
2022-12-31T18:18:33.635Z,5.03
2022-12-31T18:21:03.747Z,4.94
2022-12-31T18:23:40.477Z,4.93
2022-12-31T18:26:12.555Z,4.90
2022-12-31T18:28:42.445Z,5.04
2022-12-31T18:31:27.460Z,5.06
2022-12-31T18:33:56.228Z,5.07
2022-12-31T18:36:24.338Z,5.18
2022-12-31T18:38:51.033Z,5.04
2022-12-31T18:41:20.586Z,5.06
2022-12-31T18:43:47.826Z,5.04
2022-12-31T18:46:17.548Z,5.03
2022-12-31T18:48:44.340Z,5.24
2022-12-31T18:51:16.963Z,5.35
2022-12-31T18:53:43.731Z,5.47
2022-12-31T18:56:13.373Z,5.43
2022-12-31T18:58:40.688Z,5.38
2022-12-31T19:01:30.283Z,5.01
2022-12-31T19:03:59.658Z,4.96
2022-12-31T19:06:26.480Z,5.02
2022-12-31T19:08:53.071Z,5.22
2022-12-31T19:11:20.409Z,5.24
2022-12-31T19:13:47.762Z,5.00
2022-12-31T19:16:14.553Z,5.03
2022-12-31T19:18:42.041Z,5.09
2022-12-31T19:21:20.589Z,5.08
2022-12-31T19:23:47.269Z,5.21
2022-12-31T19:26:16.305Z,5.05
2022-12-31T19:28:44.055Z,5.26
2022-12-31T19:31:10.852Z,5.17
2022-12-31T19:33:37.545Z,5.20
2022-12-31T19:36:04.890Z,5.00
2022-12-31T19:38:31.496Z,5.32
2022-12-31T19:41:01.527Z,5.16
2022-12-31T19:43:28.127Z,4.95
2022-12-31T19:45:54.777Z,4.93
2022-12-31T19:48:30.266Z,4.86
2022-12-31T19:50:59.300Z,4.82
2022-12-31T19:53:27.393Z,4.80
2022-12-31T19:55:54.476Z,4.79
2022-12-31T19:58:23.709Z,5.04
2022-12-31T20:00:55.876Z,4.79
2022-12-31T20:03:25.867Z,4.78
2022-12-31T20:06:01.505Z,4.84
2022-12-31T20:08:28.084Z,4.82
2022-12-31T20:10:54.705Z,5.07
2022-12-31T20:13:21.339Z,4.96
2022-12-31T20:15:47.994Z,4.91
2022-12-31T20:18:14.633Z,5.25
2022-12-31T20:20:49.239Z,4.92
2022-12-31T20:23:20.203Z,4.91
2022-12-31T20:25:59.331Z,4.91
2022-12-31T20:28:26.203Z,4.90
2022-12-31T20:30:52.955Z,4.84
2022-12-31T20:33:19.984Z,4.81
2022-12-31T20:35:46.619Z,4.82
2022-12-31T20:38:13.210Z,4.89
2022-12-31T20:40:46.233Z,4.71
2022-12-31T20:43:13.499Z,4.80
2022-12-31T20:45:41.041Z,4.87
2022-12-31T20:48:07.658Z,4.84
2022-12-31T20:50:34.255Z,5.01
2022-12-31T20:53:00.852Z,4.83
2022-12-31T20:55:27.580Z,5.05
2022-12-31T20:57:54.188Z,4.97
2022-12-31T21:00:20.871Z,5.10
2022-12-31T21:02:55.485Z,4.81
2022-12-31T21:05:27.817Z,4.72
2022-12-31T21:07:54.511Z,4.56
2022-12-31T21:10:21.269Z,4.51
2022-12-31T21:12:47.873Z,4.52
2022-12-31T21:15:14.476Z,4.50
2022-12-31T21:17:41.220Z,4.75
2022-12-31T21:20:08.410Z,4.59
2022-12-31T21:22:35.105Z,4.79
2022-12-31T21:25:02.092Z,4.78
2022-12-31T21:27:29.694Z,4.60
2022-12-31T21:30:21.588Z,4.56
2022-12-31T21:32:43.231Z,4.75
2022-12-31T21:38:03.427Z,4.64
2022-12-31T21:40:31.141Z,4.65
2022-12-31T21:42:57.895Z,4.80
2022-12-31T21:45:24.590Z,4.65
2022-12-31T21:47:51.411Z,4.80
2022-12-31T21:50:18.133Z,4.49
2022-12-31T21:52:44.829Z,4.75
2022-12-31T21:55:12.046Z,4.88
2022-12-31T21:58:07.087Z,4.85
2022-12-31T22:00:41.614Z,5.31
2022-12-31T22:03:11.863Z,5.33
2022-12-31T22:05:39.381Z,5.24
2022-12-31T22:08:05.981Z,5.07
2022-12-31T22:10:37.056Z,4.50
2022-12-31T22:13:04.190Z,4.51
2022-12-31T22:15:30.927Z,4.63
2022-12-31T22:17:57.521Z,4.69
2022-12-31T22:20:28.299Z,4.09
2022-12-31T22:22:55.434Z,3.75
2022-12-31T22:25:22.035Z,3.69
2022-12-31T22:28:04.420Z,4.15
2022-12-31T22:30:35.297Z,4.04
2022-12-31T22:33:01.878Z,3.74
2022-12-31T22:35:28.483Z,3.88
2022-12-31T22:37:57.910Z,4.15
2022-12-31T22:40:25.691Z,4.11
2022-12-31T22:42:52.301Z,4.16
2022-12-31T22:45:18.873Z,4.20
2022-12-31T22:47:45.460Z,3.97
2022-12-31T22:50:12.123Z,3.41
2022-12-31T22:52:38.768Z,3.70
2022-12-31T22:55:05.867Z,3.76
2022-12-31T22:57:32.466Z,3.72
2022-12-31T22:59:59.048Z,3.82
2022-12-31T23:02:27.006Z,3.74
2022-12-31T23:04:53.629Z,3.72
2022-12-31T23:07:43.197Z,3.65
2022-12-31T23:10:10.970Z,3.71
2022-12-31T23:12:37.638Z,3.89
2022-12-31T23:15:04.561Z,3.97
2022-12-31T23:17:32.164Z,4.12
2022-12-31T23:20:00.183Z,4.00
2022-12-31T23:22:26.784Z,3.98
2022-12-31T23:24:53.388Z,3.98
2022-12-31T23:27:20.017Z,3.95
2022-12-31T23:29:47.805Z,3.87
2022-12-31T23:32:18.548Z,4.12
2022-12-31T23:34:46.094Z,3.90
2022-12-31T23:37:13.816Z,3.58
2022-12-31T23:39:40.524Z,3.61
2022-12-31T23:42:07.147Z,3.62
2022-12-31T23:44:33.817Z,3.75
2022-12-31T23:47:00.519Z,3.62
2022-12-31T23:49:27.191Z,3.56
2022-12-31T23:51:53.918Z,3.66
2022-12-31T23:54:20.560Z,3.69
2022-12-31T23:56:47.265Z,3.80
2022-12-31T23:59:13.954Z,3.63
